TimeADT,TemperatureF,Dew PointF,Humidity,Sea Level PressureIn,VisibilityMPH,Wind Direction,Wind SpeedMPH,Gust SpeedMPH,PrecipitationIn,Events,Conditions,WindDirDegrees,DateUTC
12:00 AM,47.8,30.4,51,-9999,-9999.0,North,-9999.0,-,N/A,,Unknown,0,2012-10-12 03:00:00
2:00 AM,47.7,29.1,49,-9999,-9999.0,North,-9999.0,-,N/A,,Unknown,0,2012-10-12 05:00:00
3:00 AM,47,30,40,,,Calm,Calm,,,,,,2012-10-12 06:00:00
5:00 AM,46.6,31.6,56,-9999,-9999.0,North,-9999.0,-,N/A,,Unknown,0,2012-10-12 08:00:00
6:00 AM,46.4,32.9,59,-9999,-9999.0,North,-9999.0,-,N/A,,Unknown,0,2012-10-12 09:00:00
7:00 AM,45.9,33.4,62,-9999,-9999.0,North,-9999.0,-,N/A,,Unknown,0,2012-10-12 10:00:00
8:00 AM,46.4,33.4,61,-9999,-9999.0,North,-9999.0,-,N/A,,Unknown,0,2012-10-12 11:00:00
9:00 AM,48,32,41,,,Calm,Calm,,,,,,2012-10-12 12:00:00
9:00 AM,47.7,31.8,54,-9999,-9999.0,North,-9999.0,-,N/A,,Unknown,0,2012-10-12 12:00:00
10:00 AM,50.2,35.4,57,-9999,-9999.0,North,-9999.0,-,N/A,,Unknown,0,2012-10-12 13:00:00
11:00 AM,50.7,33.8,52,-9999,-9999.0,North,-9999.0,-,N/A,,Unknown,0,2012-10-12 14:00:00
2:00 PM,54.3,41.5,62,-9999,-9999.0,North,-9999.0,-,N/A,,Unknown,0,2012-10-12 17:00:00
3:00 PM,57,42,47,,,Calm,Calm,,,,,,2012-10-12 18:00:00
4:00 PM,54.0,46.2,75,-9999,-9999.0,North,-9999.0,-,N/A,,Unknown,0,2012-10-12 19:00:00
5:00 PM,46.4,43.9,91,-9999,-9999.0,North,-9999.0,-,0.20,,Unknown,0,2012-10-12 20:00:00
7:00 PM,44.1,42.4,94,-9999,-9999.0,North,-9999.0,-,0.20,,Unknown,0,2012-10-12 22:00:00
8:00 PM,42.6,40.8,93,-9999,-9999.0,North,-9999.0,-,0.15,,Unknown,0,2012-10-12 23:00:00
9:00 PM,41.5,39.9,94,-9999,-9999.0,North,-9999.0,-,0.05,,Unknown,0,2012-10-13 00:00:00
10:00 PM,41.9,40.1,93,-9999,-9999.0,North,-9999.0,-,0.08,,Unknown,0,2012-10-13 01:00:00
11:00 PM,41.2,38.8,91,-9999,-9999.0,North,-9999.0,-,0.04,,Unknown,0,2012-10-13 02:00:00